sensor_id;sensor_type;location;lat;lon;timestamp;temperature;humidity
52127;DHT22;38120;53.176;6.614;2023-08-06T00:00:20;13.70;99.90
52127;DHT22;38120;53.176;6.614;2023-08-06T00:02:46;13.70;99.90
52127;DHT22;38120;53.176;6.614;2023-08-06T00:05:12;13.70;99.90
52127;DHT22;38120;53.176;6.614;2023-08-06T00:07:37;13.80;99.90
52127;DHT22;38120;53.176;6.614;2023-08-06T00:10:04;13.70;99.90
52127;DHT22;38120;53.176;6.614;2023-08-06T00:12:29;13.70;99.90
52127;DHT22;38120;53.176;6.614;2023-08-06T00:14:55;13.70;99.90
52127;DHT22;38120;53.176;6.614;2023-08-06T00:17:21;13.70;99.90
52127;DHT22;38120;53.176;6.614;2023-08-06T00:19:46;13.70;99.90
52127;DHT22;38120;53.176;6.614;2023-08-06T00:22:12;13.70;99.90
52127;DHT22;38120;53.176;6.614;2023-08-06T00:24:38;13.70;99.90
52127;DHT22;38120;53.176;6.614;2023-08-06T00:27:04;13.70;99.90
52127;DHT22;38120;53.176;6.614;2023-08-06T00:29:29;13.70;99.90
52127;DHT22;38120;53.176;6.614;2023-08-06T00:31:55;13.70;99.90
52127;DHT22;38120;53.176;6.614;2023-08-06T00:34:21;13.70;99.90
52127;DHT22;38120;53.176;6.614;2023-08-06T00:36:46;13.70;99.90
52127;DHT22;38120;53.176;6.614;2023-08-06T00:39:12;13.80;99.90
52127;DHT22;38120;53.176;6.614;2023-08-06T00:41:37;13.70;99.90
52127;DHT22;38120;53.176;6.614;2023-08-06T00:44:03;13.70;99.90
52127;DHT22;38120;53.176;6.614;2023-08-06T00:46:30;13.70;99.90
52127;DHT22;38120;53.176;6.614;2023-08-06T00:48:56;13.70;99.90
52127;DHT22;38120;53.176;6.614;2023-08-06T00:51:22;13.70;99.90
52127;DHT22;38120;53.176;6.614;2023-08-06T00:53:49;13.70;99.90
52127;DHT22;38120;53.176;6.614;2023-08-06T00:56:15;13.80;99.90
52127;DHT22;38120;53.176;6.614;2023-08-06T00:58:41;13.80;99.90
52127;DHT22;38120;53.176;6.614;2023-08-06T01:01:07;13.70;99.90
52127;DHT22;38120;53.176;6.614;2023-08-06T01:03:33;13.70;99.90
52127;DHT22;38120;53.176;6.614;2023-08-06T01:05:59;13.70;99.90
52127;DHT22;38120;53.176;6.614;2023-08-06T01:11:02;13.70;99.90
52127;DHT22;38120;53.176;6.614;2023-08-06T01:16:00;13.70;99.90
52127;DHT22;38120;53.176;6.614;2023-08-06T01:18:27;13.70;99.90
52127;DHT22;38120;53.176;6.614;2023-08-06T01:20:53;13.70;99.90
52127;DHT22;38120;53.176;6.614;2023-08-06T01:23:19;13.70;99.90
52127;DHT22;38120;53.176;6.614;2023-08-06T01:30:59;13.70;99.90
52127;DHT22;38120;53.176;6.614;2023-08-06T01:33:28;13.70;99.90
52127;DHT22;38120;53.176;6.614;2023-08-06T01:35:56;13.70;99.90
52127;DHT22;38120;53.176;6.614;2023-08-06T01:38:22;13.70;99.90
52127;DHT22;38120;53.176;6.614;2023-08-06T01:40:49;13.80;99.90
52127;DHT22;38120;53.176;6.614;2023-08-06T01:43:14;13.70;99.90
52127;DHT22;38120;53.176;6.614;2023-08-06T01:45:40;13.70;99.90
52127;DHT22;38120;53.176;6.614;2023-08-06T01:48:06;13.70;99.90
52127;DHT22;38120;53.176;6.614;2023-08-06T01:50:31;13.60;99.90
52127;DHT22;38120;53.176;6.614;2023-08-06T01:52:57;13.60;99.90
52127;DHT22;38120;53.176;6.614;2023-08-06T01:55:22;13.70;99.90
52127;DHT22;38120;53.176;6.614;2023-08-06T01:57:48;13.70;99.90
52127;DHT22;38120;53.176;6.614;2023-08-06T02:00:14;13.70;99.90
52127;DHT22;38120;53.176;6.614;2023-08-06T02:02:39;13.70;99.90
52127;DHT22;38120;53.176;6.614;2023-08-06T02:05:06;13.70;99.90
52127;DHT22;38120;53.176;6.614;2023-08-06T02:07:32;13.80;99.90
52127;DHT22;38120;53.176;6.614;2023-08-06T02:09:57;13.70;99.90
52127;DHT22;38120;53.176;6.614;2023-08-06T02:12:23;13.70;99.90
52127;DHT22;38120;53.176;6.614;2023-08-06T02:14:49;13.70;99.90
52127;DHT22;38120;53.176;6.614;2023-08-06T02:17:14;13.80;99.90
52127;DHT22;38120;53.176;6.614;2023-08-06T02:19:40;13.80;99.90
52127;DHT22;38120;53.176;6.614;2023-08-06T02:22:06;13.80;99.90
52127;DHT22;38120;53.176;6.614;2023-08-06T02:24:31;13.80;99.90
52127;DHT22;38120;53.176;6.614;2023-08-06T02:26:57;13.70;99.90
52127;DHT22;38120;53.176;6.614;2023-08-06T02:29:23;13.70;99.90
52127;DHT22;38120;53.176;6.614;2023-08-06T02:31:48;13.70;99.90
52127;DHT22;38120;53.176;6.614;2023-08-06T02:34:14;13.80;99.90
52127;DHT22;38120;53.176;6.614;2023-08-06T02:36:39;13.80;99.90
52127;DHT22;38120;53.176;6.614;2023-08-06T02:39:05;13.70;99.90
52127;DHT22;38120;53.176;6.614;2023-08-06T02:41:31;13.80;99.90
52127;DHT22;38120;53.176;6.614;2023-08-06T02:43:57;13.80;99.90
52127;DHT22;38120;53.176;6.614;2023-08-06T02:46:22;13.80;99.90
52127;DHT22;38120;53.176;6.614;2023-08-06T02:48:48;13.80;99.90
52127;DHT22;38120;53.176;6.614;2023-08-06T02:51:14;13.80;99.90
52127;DHT22;38120;53.176;6.614;2023-08-06T02:53:39;13.80;99.90
52127;DHT22;38120;53.176;6.614;2023-08-06T02:56:05;13.80;99.90
52127;DHT22;38120;53.176;6.614;2023-08-06T02:58:31;13.80;99.90
52127;DHT22;38120;53.176;6.614;2023-08-06T03:01:03;13.80;99.90
52127;DHT22;38120;53.176;6.614;2023-08-06T03:03:33;13.80;99.90
52127;DHT22;38120;53.176;6.614;2023-08-06T03:05:59;13.70;99.90
52127;DHT22;38120;53.176;6.614;2023-08-06T03:08:25;13.70;99.90
52127;DHT22;38120;53.176;6.614;2023-08-06T03:10:52;13.70;99.90
52127;DHT22;38120;53.176;6.614;2023-08-06T03:13:18;13.80;99.90
52127;DHT22;38120;53.176;6.614;2023-08-06T03:15:53;13.70;99.90
52127;DHT22;38120;53.176;6.614;2023-08-06T03:18:19;13.70;99.90
52127;DHT22;38120;53.176;6.614;2023-08-06T03:20:46;13.70;99.90
52127;DHT22;38120;53.176;6.614;2023-08-06T03:23:11;13.70;99.90
52127;DHT22;38120;53.176;6.614;2023-08-06T03:25:37;13.70;99.90
52127;DHT22;38120;53.176;6.614;2023-08-06T03:28:03;13.80;99.90
52127;DHT22;38120;53.176;6.614;2023-08-06T03:30:28;13.70;99.90
52127;DHT22;38120;53.176;6.614;2023-08-06T03:32:54;13.80;99.90
52127;DHT22;38120;53.176;6.614;2023-08-06T03:35:19;13.80;99.90
52127;DHT22;38120;53.176;6.614;2023-08-06T03:37:46;13.70;99.90
52127;DHT22;38120;53.176;6.614;2023-08-06T03:40:11;13.70;99.90
52127;DHT22;38120;53.176;6.614;2023-08-06T03:42:37;13.70;99.90
52127;DHT22;38120;53.176;6.614;2023-08-06T03:45:03;13.70;99.90
52127;DHT22;38120;53.176;6.614;2023-08-06T03:47:29;13.70;99.90
52127;DHT22;38120;53.176;6.614;2023-08-06T03:49:55;13.70;99.90
52127;DHT22;38120;53.176;6.614;2023-08-06T03:52:20;13.70;99.90
52127;DHT22;38120;53.176;6.614;2023-08-06T03:54:46;13.70;99.90
52127;DHT22;38120;53.176;6.614;2023-08-06T03:57:11;13.70;99.90
52127;DHT22;38120;53.176;6.614;2023-08-06T03:59:37;13.70;99.90
52127;DHT22;38120;53.176;6.614;2023-08-06T04:02:03;13.70;99.90
52127;DHT22;38120;53.176;6.614;2023-08-06T04:04:29;13.70;99.90
52127;DHT22;38120;53.176;6.614;2023-08-06T04:06:54;13.70;99.90
52127;DHT22;38120;53.176;6.614;2023-08-06T04:09:20;13.70;99.90
52127;DHT22;38120;53.176;6.614;2023-08-06T04:11:46;13.70;99.90
52127;DHT22;38120;53.176;6.614;2023-08-06T04:14:11;13.70;99.90
52127;DHT22;38120;53.176;6.614;2023-08-06T04:16:37;13.70;99.90
52127;DHT22;38120;53.176;6.614;2023-08-06T04:19:03;13.70;99.90
52127;DHT22;38120;53.176;6.614;2023-08-06T04:21:28;13.70;99.90
52127;DHT22;38120;53.176;6.614;2023-08-06T04:23:54;13.70;99.90
52127;DHT22;38120;53.176;6.614;2023-08-06T04:26:20;13.70;99.90
52127;DHT22;38120;53.176;6.614;2023-08-06T04:28:46;13.60;99.90
52127;DHT22;38120;53.176;6.614;2023-08-06T04:31:12;13.60;99.90
52127;DHT22;38120;53.176;6.614;2023-08-06T04:33:37;13.60;99.90
52127;DHT22;38120;53.176;6.614;2023-08-06T04:36:03;13.60;99.90
52127;DHT22;38120;53.176;6.614;2023-08-06T04:38:29;13.50;99.90
52127;DHT22;38120;53.176;6.614;2023-08-06T04:40:54;13.50;99.90
52127;DHT22;38120;53.176;6.614;2023-08-06T04:43:20;13.50;99.90
52127;DHT22;38120;53.176;6.614;2023-08-06T04:45:50;13.40;99.90
52127;DHT22;38120;53.176;6.614;2023-08-06T04:48:16;13.40;99.90
52127;DHT22;38120;53.176;6.614;2023-08-06T04:50:45;13.50;99.90
52127;DHT22;38120;53.176;6.614;2023-08-06T04:53:11;13.50;99.90
52127;DHT22;38120;53.176;6.614;2023-08-06T04:55:37;13.50;99.90
52127;DHT22;38120;53.176;6.614;2023-08-06T04:58:03;13.50;99.90
52127;DHT22;38120;53.176;6.614;2023-08-06T05:00:29;13.50;99.90
52127;DHT22;38120;53.176;6.614;2023-08-06T05:02:54;13.40;99.90
52127;DHT22;38120;53.176;6.614;2023-08-06T05:05:20;13.40;99.90
52127;DHT22;38120;53.176;6.614;2023-08-06T05:07:49;13.40;99.90
52127;DHT22;38120;53.176;6.614;2023-08-06T05:10:16;13.40;99.90
52127;DHT22;38120;53.176;6.614;2023-08-06T05:12:41;13.40;99.90
52127;DHT22;38120;53.176;6.614;2023-08-06T05:15:07;13.40;99.90
52127;DHT22;38120;53.176;6.614;2023-08-06T05:17:33;13.40;99.90
52127;DHT22;38120;53.176;6.614;2023-08-06T05:19:59;13.40;99.90
52127;DHT22;38120;53.176;6.614;2023-08-06T05:22:25;13.40;99.90
52127;DHT22;38120;53.176;6.614;2023-08-06T05:24:51;13.50;99.90
52127;DHT22;38120;53.176;6.614;2023-08-06T05:27:17;13.50;99.90
52127;DHT22;38120;53.176;6.614;2023-08-06T05:29:45;13.50;99.90
52127;DHT22;38120;53.176;6.614;2023-08-06T05:32:11;13.60;99.90
52127;DHT22;38120;53.176;6.614;2023-08-06T05:34:37;13.70;99.90
52127;DHT22;38120;53.176;6.614;2023-08-06T05:37:03;13.80;99.90
52127;DHT22;38120;53.176;6.614;2023-08-06T05:39:29;13.80;99.90
52127;DHT22;38120;53.176;6.614;2023-08-06T05:41:55;14.00;99.90
52127;DHT22;38120;53.176;6.614;2023-08-06T05:44:21;14.00;99.90
52127;DHT22;38120;53.176;6.614;2023-08-06T05:46:47;14.10;99.90
52127;DHT22;38120;53.176;6.614;2023-08-06T05:49:12;14.10;99.90
52127;DHT22;38120;53.176;6.614;2023-08-06T05:51:39;14.10;99.90
52127;DHT22;38120;53.176;6.614;2023-08-06T05:54:05;14.20;99.90
52127;DHT22;38120;53.176;6.614;2023-08-06T05:56:30;14.20;99.90
52127;DHT22;38120;53.176;6.614;2023-08-06T05:58:56;14.30;99.90
52127;DHT22;38120;53.176;6.614;2023-08-06T06:01:22;14.30;99.90
52127;DHT22;38120;53.176;6.614;2023-08-06T06:03:48;14.30;99.90
52127;DHT22;38120;53.176;6.614;2023-08-06T06:06:14;14.40;99.90
52127;DHT22;38120;53.176;6.614;2023-08-06T06:08:40;14.40;99.90
52127;DHT22;38120;53.176;6.614;2023-08-06T06:11:06;14.40;99.90
52127;DHT22;38120;53.176;6.614;2023-08-06T06:13:31;14.40;99.90
52127;DHT22;38120;53.176;6.614;2023-08-06T06:15:57;14.40;99.90
52127;DHT22;38120;53.176;6.614;2023-08-06T06:18:23;14.50;99.90
52127;DHT22;38120;53.176;6.614;2023-08-06T06:20:48;14.50;99.90
52127;DHT22;38120;53.176;6.614;2023-08-06T06:23:14;14.60;99.90
52127;DHT22;38120;53.176;6.614;2023-08-06T06:25:50;14.70;99.90
52127;DHT22;38120;53.176;6.614;2023-08-06T06:28:19;14.70;99.90
52127;DHT22;38120;53.176;6.614;2023-08-06T06:30:45;14.80;99.90
52127;DHT22;38120;53.176;6.614;2023-08-06T06:33:10;14.90;99.90
52127;DHT22;38120;53.176;6.614;2023-08-06T06:35:37;14.90;99.90
52127;DHT22;38120;53.176;6.614;2023-08-06T06:38:03;14.90;99.90
52127;DHT22;38120;53.176;6.614;2023-08-06T06:40:28;15.00;99.90
52127;DHT22;38120;53.176;6.614;2023-08-06T06:42:54;15.10;99.90
52127;DHT22;38120;53.176;6.614;2023-08-06T06:45:20;15.20;99.90
52127;DHT22;38120;53.176;6.614;2023-08-06T06:47:45;15.20;99.90
52127;DHT22;38120;53.176;6.614;2023-08-06T06:50:11;15.30;99.90
52127;DHT22;38120;53.176;6.614;2023-08-06T06:52:37;15.30;99.90
52127;DHT22;38120;53.176;6.614;2023-08-06T06:55:03;15.40;99.90
52127;DHT22;38120;53.176;6.614;2023-08-06T06:57:29;15.30;99.90
52127;DHT22;38120;53.176;6.614;2023-08-06T06:59:54;15.50;99.90
52127;DHT22;38120;53.176;6.614;2023-08-06T07:02:20;15.50;99.90
52127;DHT22;38120;53.176;6.614;2023-08-06T07:04:46;15.60;99.90
52127;DHT22;38120;53.176;6.614;2023-08-06T07:07:12;15.70;99.90
52127;DHT22;38120;53.176;6.614;2023-08-06T07:09:37;15.60;99.90
52127;DHT22;38120;53.176;6.614;2023-08-06T07:12:03;15.70;99.90
52127;DHT22;38120;53.176;6.614;2023-08-06T07:14:29;15.80;99.90
52127;DHT22;38120;53.176;6.614;2023-08-06T07:16:55;15.90;99.90
52127;DHT22;38120;53.176;6.614;2023-08-06T07:19:20;16.10;99.90
52127;DHT22;38120;53.176;6.614;2023-08-06T07:21:46;16.00;99.90
52127;DHT22;38120;53.176;6.614;2023-08-06T07:24:12;16.20;99.90
52127;DHT22;38120;53.176;6.614;2023-08-06T07:26:38;16.30;99.90
52127;DHT22;38120;53.176;6.614;2023-08-06T07:29:04;16.20;99.90
52127;DHT22;38120;53.176;6.614;2023-08-06T07:31:29;16.20;99.90
52127;DHT22;38120;53.176;6.614;2023-08-06T07:33:55;16.20;99.90
52127;DHT22;38120;53.176;6.614;2023-08-06T07:36:21;16.30;99.90
52127;DHT22;38120;53.176;6.614;2023-08-06T07:38:46;16.30;99.90
52127;DHT22;38120;53.176;6.614;2023-08-06T07:41:14;16.40;99.90
52127;DHT22;38120;53.176;6.614;2023-08-06T07:43:40;16.40;99.90
52127;DHT22;38120;53.176;6.614;2023-08-06T07:46:08;16.30;99.90
52127;DHT22;38120;53.176;6.614;2023-08-06T07:48:33;16.40;99.90
52127;DHT22;38120;53.176;6.614;2023-08-06T07:50:59;16.30;99.90
52127;DHT22;38120;53.176;6.614;2023-08-06T07:53:26;16.30;99.90
52127;DHT22;38120;53.176;6.614;2023-08-06T07:55:57;16.30;99.90
52127;DHT22;38120;53.176;6.614;2023-08-06T07:58:24;16.40;99.90
52127;DHT22;38120;53.176;6.614;2023-08-06T08:00:50;16.40;99.90
52127;DHT22;38120;53.176;6.614;2023-08-06T08:03:16;16.40;99.90
52127;DHT22;38120;53.176;6.614;2023-08-06T08:05:43;16.40;99.90
52127;DHT22;38120;53.176;6.614;2023-08-06T08:08:10;16.40;99.90
52127;DHT22;38120;53.176;6.614;2023-08-06T08:10:36;16.50;99.90
52127;DHT22;38120;53.176;6.614;2023-08-06T08:13:03;16.60;99.90
52127;DHT22;38120;53.176;6.614;2023-08-06T08:15:30;16.60;99.90
52127;DHT22;38120;53.176;6.614;2023-08-06T08:17:56;16.80;99.90
52127;DHT22;38120;53.176;6.614;2023-08-06T08:20:22;16.90;99.90
52127;DHT22;38120;53.176;6.614;2023-08-06T08:22:47;17.10;99.90
52127;DHT22;38120;53.176;6.614;2023-08-06T08:25:14;17.20;99.90
52127;DHT22;38120;53.176;6.614;2023-08-06T08:27:39;17.30;99.90
52127;DHT22;38120;53.176;6.614;2023-08-06T08:30:05;17.30;99.90
52127;DHT22;38120;53.176;6.614;2023-08-06T08:32:31;17.40;99.90
52127;DHT22;38120;53.176;6.614;2023-08-06T08:34:57;17.40;99.90
52127;DHT22;38120;53.176;6.614;2023-08-06T08:37:23;17.50;99.90
52127;DHT22;38120;53.176;6.614;2023-08-06T08:39:50;17.60;99.90
52127;DHT22;38120;53.176;6.614;2023-08-06T08:42:17;17.70;99.90
52127;DHT22;38120;53.176;6.614;2023-08-06T08:44:44;17.90;99.90
52127;DHT22;38120;53.176;6.614;2023-08-06T08:47:11;17.90;99.90
52127;DHT22;38120;53.176;6.614;2023-08-06T08:49:37;17.90;99.90
52127;DHT22;38120;53.176;6.614;2023-08-06T08:52:04;18.10;99.90
52127;DHT22;38120;53.176;6.614;2023-08-06T08:54:38;18.20;99.90
52127;DHT22;38120;53.176;6.614;2023-08-06T08:57:04;18.20;99.90
52127;DHT22;38120;53.176;6.614;2023-08-06T08:59:33;18.30;99.90
52127;DHT22;38120;53.176;6.614;2023-08-06T09:02:00;18.40;99.90
52127;DHT22;38120;53.176;6.614;2023-08-06T09:04:28;18.50;99.90
52127;DHT22;38120;53.176;6.614;2023-08-06T09:06:58;18.60;99.90
52127;DHT22;38120;53.176;6.614;2023-08-06T09:09:31;18.60;99.90
52127;DHT22;38120;53.176;6.614;2023-08-06T09:12:01;18.50;99.90
52127;DHT22;38120;53.176;6.614;2023-08-06T09:14:28;18.60;99.90
52127;DHT22;38120;53.176;6.614;2023-08-06T09:16:54;18.40;99.90
52127;DHT22;38120;53.176;6.614;2023-08-06T09:19:22;18.40;99.90
52127;DHT22;38120;53.176;6.614;2023-08-06T09:21:51;18.50;99.90
52127;DHT22;38120;53.176;6.614;2023-08-06T09:24:17;18.50;99.90
52127;DHT22;38120;53.176;6.614;2023-08-06T09:26:44;18.50;99.90
52127;DHT22;38120;53.176;6.614;2023-08-06T09:29:11;18.60;99.90
52127;DHT22;38120;53.176;6.614;2023-08-06T09:31:57;18.50;99.90
52127;DHT22;38120;53.176;6.614;2023-08-06T09:34:23;18.50;99.90
52127;DHT22;38120;53.176;6.614;2023-08-06T09:36:53;18.60;99.90
52127;DHT22;38120;53.176;6.614;2023-08-06T09:39:29;18.60;99.90
52127;DHT22;38120;53.176;6.614;2023-08-06T09:41:57;18.70;99.90
52127;DHT22;38120;53.176;6.614;2023-08-06T09:44:24;18.70;99.90
52127;DHT22;38120;53.176;6.614;2023-08-06T09:46:52;18.80;99.90
52127;DHT22;38120;53.176;6.614;2023-08-06T09:49:19;18.90;99.90
52127;DHT22;38120;53.176;6.614;2023-08-06T09:51:48;19.00;99.90
52127;DHT22;38120;53.176;6.614;2023-08-06T09:54:17;19.10;99.90
52127;DHT22;38120;53.176;6.614;2023-08-06T09:56:43;19.20;99.90
52127;DHT22;38120;53.176;6.614;2023-08-06T09:59:09;19.30;99.90
52127;DHT22;38120;53.176;6.614;2023-08-06T10:01:37;19.20;99.90
52127;DHT22;38120;53.176;6.614;2023-08-06T10:04:03;19.20;99.90
52127;DHT22;38120;53.176;6.614;2023-08-06T10:06:29;19.30;99.90
52127;DHT22;38120;53.176;6.614;2023-08-06T10:08:55;19.50;99.90
52127;DHT22;38120;53.176;6.614;2023-08-06T10:11:23;19.50;99.90
52127;DHT22;38120;53.176;6.614;2023-08-06T10:14:07;19.60;99.90
52127;DHT22;38120;53.176;6.614;2023-08-06T10:16:34;19.80;99.90
52127;DHT22;38120;53.176;6.614;2023-08-06T10:19:01;19.80;99.90
52127;DHT22;38120;53.176;6.614;2023-08-06T10:21:28;20.00;99.90
52127;DHT22;38120;53.176;6.614;2023-08-06T10:23:56;20.10;99.90
52127;DHT22;38120;53.176;6.614;2023-08-06T10:26:26;20.20;99.90
52127;DHT22;38120;53.176;6.614;2023-08-06T10:28:52;20.50;99.90
52127;DHT22;38120;53.176;6.614;2023-08-06T10:31:18;20.70;99.90
52127;DHT22;38120;53.176;6.614;2023-08-06T10:33:46;20.70;99.90
52127;DHT22;38120;53.176;6.614;2023-08-06T10:36:12;20.80;99.90
52127;DHT22;38120;53.176;6.614;2023-08-06T10:38:49;20.60;99.90
52127;DHT22;38120;53.176;6.614;2023-08-06T10:41:22;20.90;99.90
52127;DHT22;38120;53.176;6.614;2023-08-06T10:43:50;21.00;99.90
52127;DHT22;38120;53.176;6.614;2023-08-06T10:46:36;21.10;99.90
52127;DHT22;38120;53.176;6.614;2023-08-06T10:49:03;21.00;99.90
52127;DHT22;38120;53.176;6.614;2023-08-06T10:51:29;21.30;99.90
52127;DHT22;38120;53.176;6.614;2023-08-06T10:53:54;21.20;99.90
52127;DHT22;38120;53.176;6.614;2023-08-06T10:56:22;21.20;99.90
52127;DHT22;38120;53.176;6.614;2023-08-06T10:58:50;21.30;99.90
52127;DHT22;38120;53.176;6.614;2023-08-06T11:01:16;21.20;99.90
52127;DHT22;38120;53.176;6.614;2023-08-06T11:03:43;21.30;99.90
52127;DHT22;38120;53.176;6.614;2023-08-06T11:06:09;21.10;99.90
52127;DHT22;38120;53.176;6.614;2023-08-06T11:08:37;21.10;99.90
52127;DHT22;38120;53.176;6.614;2023-08-06T11:11:14;21.10;99.90
52127;DHT22;38120;53.176;6.614;2023-08-06T11:13:41;21.10;99.90
52127;DHT22;38120;53.176;6.614;2023-08-06T11:16:06;21.30;99.90
52127;DHT22;38120;53.176;6.614;2023-08-06T11:18:33;21.20;99.90
52127;DHT22;38120;53.176;6.614;2023-08-06T11:20:59;21.60;99.90
52127;DHT22;38120;53.176;6.614;2023-08-06T11:23:27;21.60;99.90
52127;DHT22;38120;53.176;6.614;2023-08-06T11:25:54;21.70;99.90
52127;DHT22;38120;53.176;6.614;2023-08-06T11:28:20;21.70;99.90
52127;DHT22;38120;53.176;6.614;2023-08-06T11:30:49;21.90;99.90
52127;DHT22;38120;53.176;6.614;2023-08-06T11:33:23;21.60;99.90
52127;DHT22;38120;53.176;6.614;2023-08-06T11:35:51;21.50;99.90
52127;DHT22;38120;53.176;6.614;2023-08-06T11:38:17;21.10;99.90
52127;DHT22;38120;53.176;6.614;2023-08-06T11:40:50;21.00;99.90
52127;DHT22;38120;53.176;6.614;2023-08-06T11:43:21;20.90;99.90
52127;DHT22;38120;53.176;6.614;2023-08-06T11:45:49;20.80;99.90
52127;DHT22;38120;53.176;6.614;2023-08-06T11:48:15;20.70;99.90
52127;DHT22;38120;53.176;6.614;2023-08-06T11:50:40;20.80;99.90
52127;DHT22;38120;53.176;6.614;2023-08-06T11:53:06;20.80;99.90
52127;DHT22;38120;53.176;6.614;2023-08-06T11:55:32;20.70;99.90
52127;DHT22;38120;53.176;6.614;2023-08-06T11:58:03;20.60;99.90
52127;DHT22;38120;53.176;6.614;2023-08-06T12:00:29;20.80;99.90
52127;DHT22;38120;53.176;6.614;2023-08-06T12:02:56;20.70;99.90
52127;DHT22;38120;53.176;6.614;2023-08-06T12:05:23;20.80;99.90
52127;DHT22;38120;53.176;6.614;2023-08-06T12:07:58;20.80;99.90
52127;DHT22;38120;53.176;6.614;2023-08-06T12:10:31;21.20;99.90
52127;DHT22;38120;53.176;6.614;2023-08-06T12:12:57;21.40;99.90
52127;DHT22;38120;53.176;6.614;2023-08-06T12:15:24;21.20;99.90
52127;DHT22;38120;53.176;6.614;2023-08-06T12:17:50;21.00;1.00
52127;DHT22;38120;53.176;6.614;2023-08-06T12:20:16;21.20;15.90
52127;DHT22;38120;53.176;6.614;2023-08-06T12:22:42;20.90;99.90
52127;DHT22;38120;53.176;6.614;2023-08-06T12:25:09;20.90;99.90
52127;DHT22;38120;53.176;6.614;2023-08-06T12:27:44;21.20;99.90
52127;DHT22;38120;53.176;6.614;2023-08-06T12:30:11;21.20;99.90
52127;DHT22;38120;53.176;6.614;2023-08-06T12:32:38;21.30;1.00
52127;DHT22;38120;53.176;6.614;2023-08-06T12:35:04;21.20;1.00
52127;DHT22;38120;53.176;6.614;2023-08-06T12:37:30;21.30;1.00
52127;DHT22;38120;53.176;6.614;2023-08-06T12:39:56;21.60;99.90
52127;DHT22;38120;53.176;6.614;2023-08-06T12:42:21;21.50;99.90
52127;DHT22;38120;53.176;6.614;2023-08-06T12:44:50;21.60;99.90
52127;DHT22;38120;53.176;6.614;2023-08-06T12:47:17;21.90;99.90
52127;DHT22;38120;53.176;6.614;2023-08-06T12:49:42;21.60;99.90
52127;DHT22;38120;53.176;6.614;2023-08-06T12:52:08;21.60;1.00
52127;DHT22;38120;53.176;6.614;2023-08-06T12:54:35;21.60;99.90
52127;DHT22;38120;53.176;6.614;2023-08-06T12:57:04;21.70;99.90
52127;DHT22;38120;53.176;6.614;2023-08-06T12:59:30;21.50;99.90
52127;DHT22;38120;53.176;6.614;2023-08-06T13:01:56;21.70;99.90
52127;DHT22;38120;53.176;6.614;2023-08-06T13:04:21;21.80;99.90
52127;DHT22;38120;53.176;6.614;2023-08-06T13:06:47;21.70;99.90
52127;DHT22;38120;53.176;6.614;2023-08-06T13:09:13;21.70;1.00
52127;DHT22;38120;53.176;6.614;2023-08-06T13:11:39;22.10;1.00
52127;DHT22;38120;53.176;6.614;2023-08-06T13:14:07;22.30;99.90
52127;DHT22;38120;53.176;6.614;2023-08-06T13:16:34;22.40;99.90
52127;DHT22;38120;53.176;6.614;2023-08-06T13:19:01;22.00;1.00
52127;DHT22;38120;53.176;6.614;2023-08-06T13:24:08;21.30;1.00
52127;DHT22;38120;53.176;6.614;2023-08-06T13:26:34;21.90;99.90
52127;DHT22;38120;53.176;6.614;2023-08-06T13:29:00;22.00;99.90
52127;DHT22;38120;53.176;6.614;2023-08-06T13:31:26;21.80;99.90
52127;DHT22;38120;53.176;6.614;2023-08-06T13:33:56;21.90;1.00
52127;DHT22;38120;53.176;6.614;2023-08-06T13:36:24;21.60;99.90
52127;DHT22;38120;53.176;6.614;2023-08-06T13:38:50;22.10;99.90
52127;DHT22;38120;53.176;6.614;2023-08-06T13:41:16;22.20;99.90
52127;DHT22;38120;53.176;6.614;2023-08-06T13:43:42;21.70;99.90
52127;DHT22;38120;53.176;6.614;2023-08-06T13:46:07;21.30;1.00
52127;DHT22;38120;53.176;6.614;2023-08-06T13:48:34;21.00;99.90
52127;DHT22;38120;53.176;6.614;2023-08-06T13:51:00;20.90;99.90
52127;DHT22;38120;53.176;6.614;2023-08-06T13:53:25;20.80;99.90
52127;DHT22;38120;53.176;6.614;2023-08-06T13:55:55;20.70;99.90
52127;DHT22;38120;53.176;6.614;2023-08-06T13:58:22;20.70;99.90
52127;DHT22;38120;53.176;6.614;2023-08-06T14:00:48;20.40;99.90
52127;DHT22;38120;53.176;6.614;2023-08-06T14:03:14;20.80;99.90
52127;DHT22;38120;53.176;6.614;2023-08-06T14:05:40;20.70;99.90
52127;DHT22;38120;53.176;6.614;2023-08-06T14:08:05;20.80;99.90
52127;DHT22;38120;53.176;6.614;2023-08-06T14:10:31;20.80;99.90
52127;DHT22;38120;53.176;6.614;2023-08-06T14:12:56;20.60;99.90
52127;DHT22;38120;53.176;6.614;2023-08-06T14:15:22;21.30;99.90
52127;DHT22;38120;53.176;6.614;2023-08-06T14:17:48;21.90;99.90
52127;DHT22;38120;53.176;6.614;2023-08-06T14:20:14;21.90;99.90
52127;DHT22;38120;53.176;6.614;2023-08-06T14:22:40;22.30;99.90
52127;DHT22;38120;53.176;6.614;2023-08-06T14:25:06;21.90;99.90
52127;DHT22;38120;53.176;6.614;2023-08-06T14:27:32;22.00;99.90
52127;DHT22;38120;53.176;6.614;2023-08-06T14:29:58;21.80;99.90
52127;DHT22;38120;53.176;6.614;2023-08-06T14:32:23;21.40;1.00
52127;DHT22;38120;53.176;6.614;2023-08-06T14:34:49;21.70;63.40
52127;DHT22;38120;53.176;6.614;2023-08-06T14:37:15;22.10;99.90
52127;DHT22;38120;53.176;6.614;2023-08-06T14:39:41;21.70;99.90
52127;DHT22;38120;53.176;6.614;2023-08-06T14:42:07;21.50;99.90
52127;DHT22;38120;53.176;6.614;2023-08-06T14:44:32;21.50;99.90
52127;DHT22;38120;53.176;6.614;2023-08-06T14:46:58;21.30;99.90
52127;DHT22;38120;53.176;6.614;2023-08-06T14:49:24;21.30;99.90
52127;DHT22;38120;53.176;6.614;2023-08-06T14:51:50;21.10;99.90
52127;DHT22;38120;53.176;6.614;2023-08-06T14:54:15;21.20;99.90
52127;DHT22;38120;53.176;6.614;2023-08-06T14:56:41;21.00;99.90
52127;DHT22;38120;53.176;6.614;2023-08-06T14:59:07;21.00;1.00
52127;DHT22;38120;53.176;6.614;2023-08-06T15:01:32;21.60;99.90
52127;DHT22;38120;53.176;6.614;2023-08-06T15:03:58;22.00;72.70
52127;DHT22;38120;53.176;6.614;2023-08-06T15:06:24;22.00;1.00
52127;DHT22;38120;53.176;6.614;2023-08-06T15:08:50;21.70;1.00
52127;DHT22;38120;53.176;6.614;2023-08-06T15:11:16;21.80;99.90
52127;DHT22;38120;53.176;6.614;2023-08-06T15:13:41;22.00;99.90
52127;DHT22;38120;53.176;6.614;2023-08-06T15:16:07;22.20;99.90
52127;DHT22;38120;53.176;6.614;2023-08-06T15:18:33;22.20;99.90
52127;DHT22;38120;53.176;6.614;2023-08-06T15:20:59;22.10;99.90
52127;DHT22;38120;53.176;6.614;2023-08-06T15:23:24;22.40;27.50
52127;DHT22;38120;53.176;6.614;2023-08-06T15:25:50;22.60;1.00
52127;DHT22;38120;53.176;6.614;2023-08-06T15:28:16;22.40;1.00
52127;DHT22;38120;53.176;6.614;2023-08-06T15:30:49;21.50;99.90
52127;DHT22;38120;53.176;6.614;2023-08-06T15:33:17;21.30;99.90
52127;DHT22;38120;53.176;6.614;2023-08-06T15:35:42;21.10;16.80
52127;DHT22;38120;53.176;6.614;2023-08-06T15:38:08;21.40;99.90
52127;DHT22;38120;53.176;6.614;2023-08-06T15:40:34;21.20;67.20